sensor_id;sensor_type;location;lat;lon;timestamp;P1;durP1;ratioP1;P2;durP2;ratioP2
72895;SDS011;61036;53.224;6.554;2023-06-26T00:00:25;10.07;;;8.97;;
72895;SDS011;61036;53.224;6.554;2023-06-26T00:02:51;10.80;;;8.10;;
72895;SDS011;61036;53.224;6.554;2023-06-26T00:05:16;9.93;;;8.67;;
72895;SDS011;61036;53.224;6.554;2023-06-26T00:07:42;9.20;;;8.13;;
72895;SDS011;61036;53.224;6.554;2023-06-26T00:10:08;9.57;;;8.23;;
72895;SDS011;61036;53.224;6.554;2023-06-26T00:12:33;10.13;;;8.37;;
72895;SDS011;61036;53.224;6.554;2023-06-26T00:14:59;9.73;;;8.00;;
72895;SDS011;61036;53.224;6.554;2023-06-26T00:17:25;10.53;;;7.97;;
72895;SDS011;61036;53.224;6.554;2023-06-26T00:19:51;11.57;;;8.90;;
72895;SDS011;61036;53.224;6.554;2023-06-26T00:22:16;10.67;;;8.40;;
72895;SDS011;61036;53.224;6.554;2023-06-26T00:24:42;11.40;;;8.90;;
72895;SDS011;61036;53.224;6.554;2023-06-26T00:27:10;11.63;;;8.87;;
72895;SDS011;61036;53.224;6.554;2023-06-26T00:29:35;16.23;;;8.73;;
72895;SDS011;61036;53.224;6.554;2023-06-26T00:32:01;10.90;;;8.57;;
72895;SDS011;61036;53.224;6.554;2023-06-26T00:34:27;9.73;;;8.50;;
72895;SDS011;61036;53.224;6.554;2023-06-26T00:36:52;10.77;;;8.83;;
72895;SDS011;61036;53.224;6.554;2023-06-26T00:39:18;10.20;;;9.10;;
72895;SDS011;61036;53.224;6.554;2023-06-26T00:41:43;10.10;;;8.83;;
72895;SDS011;61036;53.224;6.554;2023-06-26T00:44:10;9.17;;;7.83;;
72895;SDS011;61036;53.224;6.554;2023-06-26T00:46:35;9.37;;;8.33;;
72895;SDS011;61036;53.224;6.554;2023-06-26T00:49:02;11.60;;;8.77;;
72895;SDS011;61036;53.224;6.554;2023-06-26T00:51:28;11.53;;;8.90;;
72895;SDS011;61036;53.224;6.554;2023-06-26T00:53:55;9.70;;;8.53;;
72895;SDS011;61036;53.224;6.554;2023-06-26T00:56:22;9.73;;;8.70;;
72895;SDS011;61036;53.224;6.554;2023-06-26T00:58:48;10.17;;;9.07;;
72895;SDS011;61036;53.224;6.554;2023-06-26T01:01:14;11.07;;;9.03;;
72895;SDS011;61036;53.224;6.554;2023-06-26T01:03:50;10.70;;;9.57;;
72895;SDS011;61036;53.224;6.554;2023-06-26T01:06:20;10.00;;;8.83;;
72895;SDS011;61036;53.224;6.554;2023-06-26T01:08:47;10.50;;;9.27;;
72895;SDS011;61036;53.224;6.554;2023-06-26T01:11:14;10.90;;;9.50;;
72895;SDS011;61036;53.224;6.554;2023-06-26T01:13:40;11.50;;;9.40;;
72895;SDS011;61036;53.224;6.554;2023-06-26T01:16:07;10.40;;;9.30;;
72895;SDS011;61036;53.224;6.554;2023-06-26T01:18:34;9.43;;;8.37;;
72895;SDS011;61036;53.224;6.554;2023-06-26T01:21:01;11.07;;;9.80;;
72895;SDS011;61036;53.224;6.554;2023-06-26T01:23:31;9.77;;;8.77;;
72895;SDS011;61036;53.224;6.554;2023-06-26T01:26:21;10.37;;;8.37;;
72895;SDS011;61036;53.224;6.554;2023-06-26T01:28:48;10.47;;;9.43;;
72895;SDS011;61036;53.224;6.554;2023-06-26T01:31:16;10.63;;;9.53;;
72895;SDS011;61036;53.224;6.554;2023-06-26T01:33:42;9.53;;;8.53;;
72895;SDS011;61036;53.224;6.554;2023-06-26T01:36:08;9.87;;;8.87;;
72895;SDS011;61036;53.224;6.554;2023-06-26T01:38:35;10.57;;;9.33;;
72895;SDS011;61036;53.224;6.554;2023-06-26T01:41:00;9.17;;;8.20;;
72895;SDS011;61036;53.224;6.554;2023-06-26T01:48:56;10.43;;;8.67;;
72895;SDS011;61036;53.224;6.554;2023-06-26T01:51:30;10.33;;;8.67;;
72895;SDS011;61036;53.224;6.554;2023-06-26T01:54:00;9.50;;;8.47;;
72895;SDS011;61036;53.224;6.554;2023-06-26T01:56:28;11.03;;;9.07;;
72895;SDS011;61036;53.224;6.554;2023-06-26T01:58:54;10.13;;;8.90;;
72895;SDS011;61036;53.224;6.554;2023-06-26T02:01:21;12.57;;;8.90;;
72895;SDS011;61036;53.224;6.554;2023-06-26T02:03:47;11.33;;;9.07;;
72895;SDS011;61036;53.224;6.554;2023-06-26T02:06:12;11.17;;;9.20;;
72895;SDS011;61036;53.224;6.554;2023-06-26T02:08:38;12.13;;;9.10;;
72895;SDS011;61036;53.224;6.554;2023-06-26T02:11:04;9.90;;;8.90;;
72895;SDS011;61036;53.224;6.554;2023-06-26T02:13:29;10.07;;;8.77;;
72895;SDS011;61036;53.224;6.554;2023-06-26T02:15:55;10.70;;;8.50;;
72895;SDS011;61036;53.224;6.554;2023-06-26T02:18:20;11.60;;;9.13;;
72895;SDS011;61036;53.224;6.554;2023-06-26T02:20:49;10.60;;;9.20;;
72895;SDS011;61036;53.224;6.554;2023-06-26T02:23:15;10.07;;;8.60;;
72895;SDS011;61036;53.224;6.554;2023-06-26T02:25:41;11.57;;;9.70;;
72895;SDS011;61036;53.224;6.554;2023-06-26T02:28:08;11.10;;;9.07;;
72895;SDS011;61036;53.224;6.554;2023-06-26T02:30:35;10.27;;;8.30;;
72895;SDS011;61036;53.224;6.554;2023-06-26T02:33:00;8.50;;;7.60;;
72895;SDS011;61036;53.224;6.554;2023-06-26T02:35:26;11.07;;;9.37;;
72895;SDS011;61036;53.224;6.554;2023-06-26T02:37:51;11.03;;;9.03;;
72895;SDS011;61036;53.224;6.554;2023-06-26T02:40:17;10.50;;;8.53;;
72895;SDS011;61036;53.224;6.554;2023-06-26T02:42:42;10.57;;;9.20;;
72895;SDS011;61036;53.224;6.554;2023-06-26T02:45:08;11.17;;;9.60;;
72895;SDS011;61036;53.224;6.554;2023-06-26T02:47:34;10.40;;;8.73;;
72895;SDS011;61036;53.224;6.554;2023-06-26T02:50:00;9.60;;;8.60;;
72895;SDS011;61036;53.224;6.554;2023-06-26T02:52:28;10.27;;;9.17;;
72895;SDS011;61036;53.224;6.554;2023-06-26T02:54:54;11.30;;;9.13;;
72895;SDS011;61036;53.224;6.554;2023-06-26T02:57:20;10.77;;;8.57;;
72895;SDS011;61036;53.224;6.554;2023-06-26T02:59:45;12.03;;;10.73;;
72895;SDS011;61036;53.224;6.554;2023-06-26T03:02:12;12.83;;;10.40;;
72895;SDS011;61036;53.224;6.554;2023-06-26T03:04:42;12.10;;;10.30;;
72895;SDS011;61036;53.224;6.554;2023-06-26T03:07:10;11.07;;;9.53;;
72895;SDS011;61036;53.224;6.554;2023-06-26T03:09:37;13.47;;;12.07;;
72895;SDS011;61036;53.224;6.554;2023-06-26T03:12:02;11.50;;;9.93;;
72895;SDS011;61036;53.224;6.554;2023-06-26T03:14:28;13.23;;;10.67;;
72895;SDS011;61036;53.224;6.554;2023-06-26T03:16:55;12.50;;;11.20;;
72895;SDS011;61036;53.224;6.554;2023-06-26T03:19:24;12.83;;;11.07;;
72895;SDS011;61036;53.224;6.554;2023-06-26T03:22:25;12.77;;;11.37;;
72895;SDS011;61036;53.224;6.554;2023-06-26T03:24:50;11.10;;;9.87;;
72895;SDS011;61036;53.224;6.554;2023-06-26T03:27:16;15.17;;;11.47;;
72895;SDS011;61036;53.224;6.554;2023-06-26T03:29:43;10.27;;;8.93;;
72895;SDS011;61036;53.224;6.554;2023-06-26T03:32:08;11.87;;;10.67;;
72895;SDS011;61036;53.224;6.554;2023-06-26T03:34:34;10.83;;;9.73;;
72895;SDS011;61036;53.224;6.554;2023-06-26T03:37:00;13.30;;;11.63;;
72895;SDS011;61036;53.224;6.554;2023-06-26T03:39:27;13.57;;;11.40;;
72895;SDS011;61036;53.224;6.554;2023-06-26T03:41:53;12.03;;;10.83;;
72895;SDS011;61036;53.224;6.554;2023-06-26T03:44:20;14.43;;;11.93;;
72895;SDS011;61036;53.224;6.554;2023-06-26T03:46:48;13.30;;;12.00;;
72895;SDS011;61036;53.224;6.554;2023-06-26T03:49:13;11.57;;;9.90;;
72895;SDS011;61036;53.224;6.554;2023-06-26T03:51:39;11.63;;;9.97;;
72895;SDS011;61036;53.224;6.554;2023-06-26T03:54:04;14.30;;;12.00;;
72895;SDS011;61036;53.224;6.554;2023-06-26T03:56:30;13.13;;;11.73;;
72895;SDS011;61036;53.224;6.554;2023-06-26T03:58:55;13.77;;;10.97;;
72895;SDS011;61036;53.224;6.554;2023-06-26T04:01:21;14.93;;;10.63;;
72895;SDS011;61036;53.224;6.554;2023-06-26T04:03:48;12.23;;;10.40;;
72895;SDS011;61036;53.224;6.554;2023-06-26T04:06:14;12.77;;;11.07;;
72895;SDS011;61036;53.224;6.554;2023-06-26T04:08:39;14.23;;;11.17;;
72895;SDS011;61036;53.224;6.554;2023-06-26T04:11:05;12.80;;;11.47;;
72895;SDS011;61036;53.224;6.554;2023-06-26T04:13:30;13.90;;;12.17;;
72895;SDS011;61036;53.224;6.554;2023-06-26T04:15:56;10.93;;;9.27;;
72895;SDS011;61036;53.224;6.554;2023-06-26T04:18:21;12.70;;;10.30;;
72895;SDS011;61036;53.224;6.554;2023-06-26T04:23:33;11.60;;;9.80;;
72895;SDS011;61036;53.224;6.554;2023-06-26T04:25:59;12.07;;;10.77;;
72895;SDS011;61036;53.224;6.554;2023-06-26T04:28:24;14.07;;;10.57;;
72895;SDS011;61036;53.224;6.554;2023-06-26T04:30:50;14.93;;;10.70;;
72895;SDS011;61036;53.224;6.554;2023-06-26T04:33:16;13.23;;;9.50;;
72895;SDS011;61036;53.224;6.554;2023-06-26T04:35:41;12.07;;;9.43;;
72895;SDS011;61036;53.224;6.554;2023-06-26T04:38:10;12.07;;;9.00;;
72895;SDS011;61036;53.224;6.554;2023-06-26T04:40:35;13.37;;;9.53;;
72895;SDS011;61036;53.224;6.554;2023-06-26T04:43:01;12.40;;;8.60;;
72895;SDS011;61036;53.224;6.554;2023-06-26T04:45:26;11.83;;;8.27;;
72895;SDS011;61036;53.224;6.554;2023-06-26T04:47:52;12.83;;;8.00;;
72895;SDS011;61036;53.224;6.554;2023-06-26T04:50:17;13.00;;;8.23;;
72895;SDS011;61036;53.224;6.554;2023-06-26T04:52:44;10.50;;;8.47;;
72895;SDS011;61036;53.224;6.554;2023-06-26T04:55:09;12.57;;;8.27;;
72895;SDS011;61036;53.224;6.554;2023-06-26T04:57:35;12.27;;;8.20;;
72895;SDS011;61036;53.224;6.554;2023-06-26T05:00:01;12.67;;;7.93;;
72895;SDS011;61036;53.224;6.554;2023-06-26T05:02:27;10.27;;;7.47;;
72895;SDS011;61036;53.224;6.554;2023-06-26T05:04:54;15.77;;;8.70;;
72895;SDS011;61036;53.224;6.554;2023-06-26T05:07:19;14.57;;;8.87;;
72895;SDS011;61036;53.224;6.554;2023-06-26T05:09:45;13.27;;;8.63;;
72895;SDS011;61036;53.224;6.554;2023-06-26T05:12:10;13.10;;;9.20;;
72895;SDS011;61036;53.224;6.554;2023-06-26T05:14:37;15.10;;;9.87;;
72895;SDS011;61036;53.224;6.554;2023-06-26T05:17:03;15.63;;;9.87;;
72895;SDS011;61036;53.224;6.554;2023-06-26T05:19:29;15.20;;;10.27;;
72895;SDS011;61036;53.224;6.554;2023-06-26T05:21:54;18.03;;;10.77;;
72895;SDS011;61036;53.224;6.554;2023-06-26T05:24:21;17.60;;;11.30;;
72895;SDS011;61036;53.224;6.554;2023-06-26T05:26:48;17.80;;;10.57;;
72895;SDS011;61036;53.224;6.554;2023-06-26T05:29:14;16.33;;;10.80;;
72895;SDS011;61036;53.224;6.554;2023-06-26T05:31:40;19.17;;;10.03;;
72895;SDS011;61036;53.224;6.554;2023-06-26T05:34:07;16.97;;;9.83;;
72895;SDS011;61036;53.224;6.554;2023-06-26T05:36:35;14.93;;;7.70;;
72895;SDS011;61036;53.224;6.554;2023-06-26T05:39:01;14.60;;;7.77;;
72895;SDS011;61036;53.224;6.554;2023-06-26T05:41:27;14.97;;;6.97;;
72895;SDS011;61036;53.224;6.554;2023-06-26T05:43:53;12.23;;;6.97;;
72895;SDS011;61036;53.224;6.554;2023-06-26T05:46:19;16.00;;;6.87;;
72895;SDS011;61036;53.224;6.554;2023-06-26T05:48:45;16.57;;;6.83;;
72895;SDS011;61036;53.224;6.554;2023-06-26T05:51:12;11.13;;;6.13;;
72895;SDS011;61036;53.224;6.554;2023-06-26T05:53:38;14.03;;;6.93;;
72895;SDS011;61036;53.224;6.554;2023-06-26T05:56:04;14.30;;;6.10;;
72895;SDS011;61036;53.224;6.554;2023-06-26T05:58:29;13.60;;;5.90;;
72895;SDS011;61036;53.224;6.554;2023-06-26T06:00:55;14.37;;;6.87;;
72895;SDS011;61036;53.224;6.554;2023-06-26T06:03:21;12.50;;;5.70;;
72895;SDS011;61036;53.224;6.554;2023-06-26T06:05:47;14.10;;;5.87;;
72895;SDS011;61036;53.224;6.554;2023-06-26T06:08:12;14.80;;;5.30;;
72895;SDS011;61036;53.224;6.554;2023-06-26T06:10:38;11.60;;;5.27;;
72895;SDS011;61036;53.224;6.554;2023-06-26T06:13:03;12.40;;;5.50;;
72895;SDS011;61036;53.224;6.554;2023-06-26T06:15:29;14.23;;;5.07;;
72895;SDS011;61036;53.224;6.554;2023-06-26T06:17:55;10.43;;;4.80;;
72895;SDS011;61036;53.224;6.554;2023-06-26T06:20:20;15.00;;;5.37;;
72895;SDS011;61036;53.224;6.554;2023-06-26T06:22:46;15.03;;;4.60;;
72895;SDS011;61036;53.224;6.554;2023-06-26T06:25:13;10.53;;;4.40;;
72895;SDS011;61036;53.224;6.554;2023-06-26T06:27:39;10.53;;;4.23;;
72895;SDS011;61036;53.224;6.554;2023-06-26T06:30:05;11.90;;;4.37;;
72895;SDS011;61036;53.224;6.554;2023-06-26T06:32:31;13.57;;;4.67;;
72895;SDS011;61036;53.224;6.554;2023-06-26T06:34:56;10.60;;;4.07;;
72895;SDS011;61036;53.224;6.554;2023-06-26T06:37:22;11.23;;;3.70;;
72895;SDS011;61036;53.224;6.554;2023-06-26T06:39:48;12.37;;;4.30;;
72895;SDS011;61036;53.224;6.554;2023-06-26T06:42:13;11.07;;;4.07;;
72895;SDS011;61036;53.224;6.554;2023-06-26T06:44:39;9.73;;;3.17;;
72895;SDS011;61036;53.224;6.554;2023-06-26T06:47:04;8.67;;;3.10;;
72895;SDS011;61036;53.224;6.554;2023-06-26T06:49:30;9.60;;;3.13;;
72895;SDS011;61036;53.224;6.554;2023-06-26T06:51:55;11.53;;;3.70;;
72895;SDS011;61036;53.224;6.554;2023-06-26T06:54:21;13.43;;;3.63;;
72895;SDS011;61036;53.224;6.554;2023-06-26T06:56:47;9.53;;;3.63;;
72895;SDS011;61036;53.224;6.554;2023-06-26T06:59:12;8.93;;;3.10;;
72895;SDS011;61036;53.224;6.554;2023-06-26T07:01:38;7.53;;;3.00;;
72895;SDS011;61036;53.224;6.554;2023-06-26T07:04:04;10.37;;;3.03;;
72895;SDS011;61036;53.224;6.554;2023-06-26T07:06:30;11.60;;;2.87;;
72895;SDS011;61036;53.224;6.554;2023-06-26T07:08:56;7.27;;;2.60;;
72895;SDS011;61036;53.224;6.554;2023-06-26T07:11:21;8.90;;;2.60;;
72895;SDS011;61036;53.224;6.554;2023-06-26T07:13:47;8.30;;;2.63;;
72895;SDS011;61036;53.224;6.554;2023-06-26T07:16:12;8.37;;;2.50;;
72895;SDS011;61036;53.224;6.554;2023-06-26T07:18:40;10.97;;;2.67;;
72895;SDS011;61036;53.224;6.554;2023-06-26T07:21:05;5.17;;;1.90;;
72895;SDS011;61036;53.224;6.554;2023-06-26T07:23:31;9.93;;;2.53;;
72895;SDS011;61036;53.224;6.554;2023-06-26T07:25:56;7.03;;;2.23;;
72895;SDS011;61036;53.224;6.554;2023-06-26T07:28:22;7.60;;;2.30;;
72895;SDS011;61036;53.224;6.554;2023-06-26T07:30:47;7.77;;;2.40;;
72895;SDS011;61036;53.224;6.554;2023-06-26T07:33:13;6.53;;;2.50;;
72895;SDS011;61036;53.224;6.554;2023-06-26T07:35:39;7.50;;;2.17;;
72895;SDS011;61036;53.224;6.554;2023-06-26T07:38:05;8.87;;;2.60;;
72895;SDS011;61036;53.224;6.554;2023-06-26T07:40:30;6.00;;;2.10;;
72895;SDS011;61036;53.224;6.554;2023-06-26T07:42:56;8.07;;;2.20;;
72895;SDS011;61036;53.224;6.554;2023-06-26T07:45:23;6.00;;;1.93;;
72895;SDS011;61036;53.224;6.554;2023-06-26T07:47:49;4.40;;;1.80;;
72895;SDS011;61036;53.224;6.554;2023-06-26T07:50:14;6.70;;;2.13;;
72895;SDS011;61036;53.224;6.554;2023-06-26T07:52:46;5.97;;;2.10;;
72895;SDS011;61036;53.224;6.554;2023-06-26T07:55:12;8.33;;;1.83;;
72895;SDS011;61036;53.224;6.554;2023-06-26T07:57:37;6.20;;;1.80;;
72895;SDS011;61036;53.224;6.554;2023-06-26T08:00:03;6.43;;;1.87;;
72895;SDS011;61036;53.224;6.554;2023-06-26T08:02:39;6.93;;;1.80;;
72895;SDS011;61036;53.224;6.554;2023-06-26T08:05:05;7.77;;;2.20;;
72895;SDS011;61036;53.224;6.554;2023-06-26T08:07:30;7.63;;;2.10;;
72895;SDS011;61036;53.224;6.554;2023-06-26T08:09:56;6.50;;;2.27;;
72895;SDS011;61036;53.224;6.554;2023-06-26T08:12:21;10.83;;;2.90;;
72895;SDS011;61036;53.224;6.554;2023-06-26T08:14:47;7.33;;;2.07;;
72895;SDS011;61036;53.224;6.554;2023-06-26T08:17:12;5.37;;;2.03;;
72895;SDS011;61036;53.224;6.554;2023-06-26T08:19:38;5.63;;;2.17;;
72895;SDS011;61036;53.224;6.554;2023-06-26T08:22:03;6.10;;;2.57;;
72895;SDS011;61036;53.224;6.554;2023-06-26T08:24:29;5.23;;;1.70;;
72895;SDS011;61036;53.224;6.554;2023-06-26T08:26:54;6.17;;;2.03;;
72895;SDS011;61036;53.224;6.554;2023-06-26T08:29:20;5.53;;;2.13;;
72895;SDS011;61036;53.224;6.554;2023-06-26T08:31:45;4.33;;;1.80;;
72895;SDS011;61036;53.224;6.554;2023-06-26T08:34:11;6.03;;;1.90;;
72895;SDS011;61036;53.224;6.554;2023-06-26T08:36:36;6.23;;;2.20;;
72895;SDS011;61036;53.224;6.554;2023-06-26T08:39:02;6.37;;;2.40;;
72895;SDS011;61036;53.224;6.554;2023-06-26T08:41:30;7.73;;;1.90;;
72895;SDS011;61036;53.224;6.554;2023-06-26T08:43:56;5.70;;;1.90;;
72895;SDS011;61036;53.224;6.554;2023-06-26T08:46:22;4.93;;;2.17;;
72895;SDS011;61036;53.224;6.554;2023-06-26T08:48:57;5.93;;;2.07;;
72895;SDS011;61036;53.224;6.554;2023-06-26T08:51:27;6.93;;;2.97;;
72895;SDS011;61036;53.224;6.554;2023-06-26T08:54:00;6.63;;;2.27;;
72895;SDS011;61036;53.224;6.554;2023-06-26T08:56:27;5.27;;;2.30;;
72895;SDS011;61036;53.224;6.554;2023-06-26T08:58:57;5.23;;;2.10;;
72895;SDS011;61036;53.224;6.554;2023-06-26T09:01:23;6.13;;;2.33;;
72895;SDS011;61036;53.224;6.554;2023-06-26T09:03:50;6.10;;;2.50;;
72895;SDS011;61036;53.224;6.554;2023-06-26T09:06:17;8.37;;;2.50;;
72895;SDS011;61036;53.224;6.554;2023-06-26T09:08:43;8.10;;;2.53;;
72895;SDS011;61036;53.224;6.554;2023-06-26T09:11:09;7.70;;;2.37;;
72895;SDS011;61036;53.224;6.554;2023-06-26T09:13:35;6.53;;;2.40;;
72895;SDS011;61036;53.224;6.554;2023-06-26T09:16:04;8.57;;;2.50;;
72895;SDS011;61036;53.224;6.554;2023-06-26T09:18:32;5.37;;;2.77;;
72895;SDS011;61036;53.224;6.554;2023-06-26T09:20:58;6.50;;;2.50;;
72895;SDS011;61036;53.224;6.554;2023-06-26T09:23:24;8.17;;;2.57;;
72895;SDS011;61036;53.224;6.554;2023-06-26T09:25:51;5.87;;;2.10;;
72895;SDS011;61036;53.224;6.554;2023-06-26T09:28:17;6.60;;;2.50;;
72895;SDS011;61036;53.224;6.554;2023-06-26T09:30:44;6.07;;;3.20;;
72895;SDS011;61036;53.224;6.554;2023-06-26T09:33:15;6.17;;;2.73;;
72895;SDS011;61036;53.224;6.554;2023-06-26T09:35:42;5.13;;;2.33;;
72895;SDS011;61036;53.224;6.554;2023-06-26T09:38:08;3.87;;;2.10;;
72895;SDS011;61036;53.224;6.554;2023-06-26T09:40:34;6.50;;;2.63;;
72895;SDS011;61036;53.224;6.554;2023-06-26T09:43:06;6.67;;;2.73;;
72895;SDS011;61036;53.224;6.554;2023-06-26T09:45:36;7.50;;;2.70;;
72895;SDS011;61036;53.224;6.554;2023-06-26T09:48:03;8.03;;;2.97;;
72895;SDS011;61036;53.224;6.554;2023-06-26T09:50:29;7.83;;;2.83;;
72895;SDS011;61036;53.224;6.554;2023-06-26T09:52:57;6.03;;;2.97;;
72895;SDS011;61036;53.224;6.554;2023-06-26T09:55:23;5.77;;;2.90;;
72895;SDS011;61036;53.224;6.554;2023-06-26T09:57:51;6.63;;;3.10;;
72895;SDS011;61036;53.224;6.554;2023-06-26T10:00:21;6.87;;;3.00;;
72895;SDS011;61036;53.224;6.554;2023-06-26T10:02:47;5.43;;;2.83;;
72895;SDS011;61036;53.224;6.554;2023-06-26T10:05:12;8.47;;;3.43;;
72895;SDS011;61036;53.224;6.554;2023-06-26T10:07:38;6.03;;;3.30;;
72895;SDS011;61036;53.224;6.554;2023-06-26T10:10:05;6.60;;;2.70;;
72895;SDS011;61036;53.224;6.554;2023-06-26T10:12:32;5.93;;;3.63;;
72895;SDS011;61036;53.224;6.554;2023-06-26T10:14:59;7.77;;;3.67;;
72895;SDS011;61036;53.224;6.554;2023-06-26T10:17:29;8.27;;;3.30;;
72895;SDS011;61036;53.224;6.554;2023-06-26T10:19:58;5.87;;;3.03;;
72895;SDS011;61036;53.224;6.554;2023-06-26T10:22:27;5.20;;;3.10;;
72895;SDS011;61036;53.224;6.554;2023-06-26T10:24:58;6.57;;;3.17;;
72895;SDS011;61036;53.224;6.554;2023-06-26T10:27:27;6.13;;;3.37;;
72895;SDS011;61036;53.224;6.554;2023-06-26T10:29:58;9.40;;;3.40;;
72895;SDS011;61036;53.224;6.554;2023-06-26T10:32:27;5.73;;;3.60;;
72895;SDS011;61036;53.224;6.554;2023-06-26T10:34:54;6.87;;;3.47;;
72895;SDS011;61036;53.224;6.554;2023-06-26T10:37:26;6.47;;;3.33;;
72895;SDS011;61036;53.224;6.554;2023-06-26T10:40:07;4.90;;;2.87;;
72895;SDS011;61036;53.224;6.554;2023-06-26T10:42:36;7.77;;;3.30;;
72895;SDS011;61036;53.224;6.554;2023-06-26T10:45:10;5.60;;;3.40;;
72895;SDS011;61036;53.224;6.554;2023-06-26T10:47:44;7.73;;;3.10;;
72895;SDS011;61036;53.224;6.554;2023-06-26T10:50:18;8.13;;;3.83;;
72895;SDS011;61036;53.224;6.554;2023-06-26T10:52:44;7.40;;;3.40;;
72895;SDS011;61036;53.224;6.554;2023-06-26T10:55:10;7.53;;;3.87;;
72895;SDS011;61036;53.224;6.554;2023-06-26T10:57:36;6.20;;;3.80;;
72895;SDS011;61036;53.224;6.554;2023-06-26T11:00:08;7.77;;;3.30;;
72895;SDS011;61036;53.224;6.554;2023-06-26T11:02:51;6.73;;;2.70;;
72895;SDS011;61036;53.224;6.554;2023-06-26T11:05:32;7.83;;;3.00;;
72895;SDS011;61036;53.224;6.554;2023-06-26T11:08:05;6.70;;;2.97;;
72895;SDS011;61036;53.224;6.554;2023-06-26T11:10:49;5.63;;;2.73;;
72895;SDS011;61036;53.224;6.554;2023-06-26T11:13:17;6.17;;;2.60;;
72895;SDS011;61036;53.224;6.554;2023-06-26T11:15:44;5.40;;;2.77;;
72895;SDS011;61036;53.224;6.554;2023-06-26T11:18:10;6.43;;;2.77;;
72895;SDS011;61036;53.224;6.554;2023-06-26T11:20:37;5.43;;;2.80;;
72895;SDS011;61036;53.224;6.554;2023-06-26T11:23:07;7.67;;;2.70;;
72895;SDS011;61036;53.224;6.554;2023-06-26T11:25:37;5.83;;;2.53;;
72895;SDS011;61036;53.224;6.554;2023-06-26T11:28:04;5.53;;;2.50;;
72895;SDS011;61036;53.224;6.554;2023-06-26T11:30:30;4.40;;;2.20;;
72895;SDS011;61036;53.224;6.554;2023-06-26T11:33:14;8.83;;;2.50;;
72895;SDS011;61036;53.224;6.554;2023-06-26T11:35:40;3.60;;;1.60;;
72895;SDS011;61036;53.224;6.554;2023-06-26T11:38:05;7.20;;;2.30;;
72895;SDS011;61036;53.224;6.554;2023-06-26T11:40:36;7.33;;;2.20;;
72895;SDS011;61036;53.224;6.554;2023-06-26T11:43:02;5.83;;;2.00;;
72895;SDS011;61036;53.224;6.554;2023-06-26T11:45:29;5.83;;;1.80;;
72895;SDS011;61036;53.224;6.554;2023-06-26T11:47:55;5.87;;;1.93;;
72895;SDS011;61036;53.224;6.554;2023-06-26T11:50:22;5.47;;;1.80;;
72895;SDS011;61036;53.224;6.554;2023-06-26T11:52:58;8.60;;;1.87;;
72895;SDS011;61036;53.224;6.554;2023-06-26T11:55:24;7.53;;;2.00;;
72895;SDS011;61036;53.224;6.554;2023-06-26T11:57:54;7.87;;;2.10;;
72895;SDS011;61036;53.224;6.554;2023-06-26T12:00:21;7.60;;;2.10;;
72895;SDS011;61036;53.224;6.554;2023-06-26T12:02:47;8.93;;;2.33;;
72895;SDS011;61036;53.224;6.554;2023-06-26T12:05:13;4.50;;;1.70;;
72895;SDS011;61036;53.224;6.554;2023-06-26T12:07:39;6.47;;;2.00;;
72895;SDS011;61036;53.224;6.554;2023-06-26T12:10:07;5.23;;;1.73;;
72895;SDS011;61036;53.224;6.554;2023-06-26T12:12:35;6.77;;;2.20;;
72895;SDS011;61036;53.224;6.554;2023-06-26T12:15:01;5.70;;;2.07;;
72895;SDS011;61036;53.224;6.554;2023-06-26T12:17:28;5.80;;;2.17;;
72895;SDS011;61036;53.224;6.554;2023-06-26T12:19:53;8.77;;;2.30;;
72895;SDS011;61036;53.224;6.554;2023-06-26T12:22:19;7.13;;;2.07;;
72895;SDS011;61036;53.224;6.554;2023-06-26T12:24:45;5.87;;;1.97;;
72895;SDS011;61036;53.224;6.554;2023-06-26T12:27:15;5.37;;;1.67;;
72895;SDS011;61036;53.224;6.554;2023-06-26T12:29:49;6.50;;;1.97;;
72895;SDS011;61036;53.224;6.554;2023-06-26T12:32:17;5.37;;;1.87;;
72895;SDS011;61036;53.224;6.554;2023-06-26T12:34:46;9.63;;;2.90;;
72895;SDS011;61036;53.224;6.554;2023-06-26T12:37:14;4.83;;;1.40;;
72895;SDS011;61036;53.224;6.554;2023-06-26T12:39:47;7.47;;;1.63;;
72895;SDS011;61036;53.224;6.554;2023-06-26T12:42:18;5.33;;;1.93;;
72895;SDS011;61036;53.224;6.554;2023-06-26T12:44:45;8.87;;;2.13;;
72895;SDS011;61036;53.224;6.554;2023-06-26T12:47:10;5.73;;;1.83;;
72895;SDS011;61036;53.224;6.554;2023-06-26T12:49:40;7.63;;;1.93;;
72895;SDS011;61036;53.224;6.554;2023-06-26T12:52:09;6.23;;;2.23;;
72895;SDS011;61036;53.224;6.554;2023-06-26T12:54:36;6.77;;;1.90;;
72895;SDS011;61036;53.224;6.554;2023-06-26T12:57:03;5.63;;;1.60;;
72895;SDS011;61036;53.224;6.554;2023-06-26T12:59:29;8.67;;;2.23;;
72895;SDS011;61036;53.224;6.554;2023-06-26T13:01:56;6.10;;;1.90;;
72895;SDS011;61036;53.224;6.554;2023-06-26T13:04:22;5.67;;;1.57;;
72895;SDS011;61036;53.224;6.554;2023-06-26T13:06:47;5.90;;;1.70;;
72895;SDS011;61036;53.224;6.554;2023-06-26T13:09:13;4.80;;;1.90;;
72895;SDS011;61036;53.224;6.554;2023-06-26T13:11:39;7.37;;;1.97;;
72895;SDS011;61036;53.224;6.554;2023-06-26T13:14:04;5.17;;;1.90;;
72895;SDS011;61036;53.224;6.554;2023-06-26T13:16:30;7.30;;;1.73;;
72895;SDS011;61036;53.224;6.554;2023-06-26T13:18:57;4.97;;;1.57;;
72895;SDS011;61036;53.224;6.554;2023-06-26T13:21:24;4.60;;;1.60;;
72895;SDS011;61036;53.224;6.554;2023-06-26T13:23:49;6.53;;;1.93;;
72895;SDS011;61036;53.224;6.554;2023-06-26T13:26:15;4.87;;;1.63;;
72895;SDS011;61036;53.224;6.554;2023-06-26T13:28:41;5.23;;;1.80;;
72895;SDS011;61036;53.224;6.554;2023-06-26T13:31:06;7.70;;;2.27;;
72895;SDS011;61036;53.224;6.554;2023-06-26T13:33:32;6.43;;;2.00;;
72895;SDS011;61036;53.224;6.554;2023-06-26T13:35:57;5.47;;;1.70;;
72895;SDS011;61036;53.224;6.554;2023-06-26T13:38:23;5.10;;;1.67;;
72895;SDS011;61036;53.224;6.554;2023-06-26T13:40:53;6.40;;;2.23;;
72895;SDS011;61036;53.224;6.554;2023-06-26T13:43:20;4.77;;;1.73;;
72895;SDS011;61036;53.224;6.554;2023-06-26T13:45:46;6.87;;;2.10;;
72895;SDS011;61036;53.224;6.554;2023-06-26T13:48:13;4.53;;;1.80;;
72895;SDS011;61036;53.224;6.554;2023-06-26T13:50:39;6.77;;;2.33;;
72895;SDS011;61036;53.224;6.554;2023-06-26T13:53:05;6.70;;;2.10;;
72895;SDS011;61036;53.224;6.554;2023-06-26T13:55:31;5.33;;;2.00;;
72895;SDS011;61036;53.224;6.554;2023-06-26T13:57:56;5.57;;;2.03;;
72895;SDS011;61036;53.224;6.554;2023-06-26T14:00:22;9.07;;;2.23;;
72895;SDS011;61036;53.224;6.554;2023-06-26T14:02:48;8.57;;;2.40;;
72895;SDS011;61036;53.224;6.554;2023-06-26T14:05:13;8.80;;;2.37;;
72895;SDS011;61036;53.224;6.554;2023-06-26T14:07:39;7.53;;;2.30;;
72895;SDS011;61036;53.224;6.554;2023-06-26T14:10:05;4.97;;;1.90;;
72895;SDS011;61036;53.224;6.554;2023-06-26T14:12:34;8.23;;;2.40;;
72895;SDS011;61036;53.224;6.554;2023-06-26T14:15:00;5.27;;;2.10;;
72895;SDS011;61036;53.224;6.554;2023-06-26T14:17:25;5.73;;;2.07;;
72895;SDS011;61036;53.224;6.554;2023-06-26T14:19:52;7.53;;;2.17;;
72895;SDS011;61036;53.224;6.554;2023-06-26T14:22:17;7.83;;;2.10;;
72895;SDS011;61036;53.224;6.554;2023-06-26T14:24:43;9.03;;;2.40;;
72895;SDS011;61036;53.224;6.554;2023-06-26T14:27:09;6.97;;;1.80;;
72895;SDS011;61036;53.224;6.554;2023-06-26T14:29:37;6.43;;;2.10;;
72895;SDS011;61036;53.224;6.554;2023-06-26T14:32:03;7.67;;;2.20;;
72895;SDS011;61036;53.224;6.554;2023-06-26T14:34:29;7.67;;;2.57;;
72895;SDS011;61036;53.224;6.554;2023-06-26T14:36:55;5.37;;;2.07;;
72895;SDS011;61036;53.224;6.554;2023-06-26T14:39:20;8.33;;;2.77;;
72895;SDS011;61036;53.224;6.554;2023-06-26T14:41:46;7.73;;;1.87;;
72895;SDS011;61036;53.224;6.554;2023-06-26T14:44:13;4.57;;;2.00;;
72895;SDS011;61036;53.224;6.554;2023-06-26T14:46:39;8.97;;;2.37;;